createdAt,value
2023-01-27T00:00:52.421Z,0.32
2023-01-27T00:03:20.334Z,0.30
2023-01-27T00:05:48.057Z,0.30
2023-01-27T00:08:17.545Z,0.41
2023-01-27T00:10:45.180Z,0.71
2023-01-27T00:13:27.756Z,0.66
2023-01-27T00:15:55.863Z,0.69
2023-01-27T00:18:24.481Z,0.83
2023-01-27T00:21:09.612Z,0.78
2023-01-27T00:23:56.226Z,0.79
2023-01-27T00:26:24.096Z,0.84
2023-01-27T00:28:51.584Z,0.80
2023-01-27T00:31:37.110Z,0.87
2023-01-27T00:34:10.753Z,0.92
2023-01-27T00:36:39.390Z,0.90
2023-01-27T00:39:09.671Z,0.98
2023-01-27T00:41:37.488Z,0.97
2023-01-27T00:44:05.759Z,0.99
2023-01-27T00:46:34.049Z,1.05
2023-01-27T00:49:01.589Z,1.27
2023-01-27T00:51:29.136Z,1.40
2023-01-27T00:53:56.691Z,1.45
2023-01-27T00:56:25.592Z,1.43
2023-01-27T00:58:53.050Z,1.47
2023-01-27T01:01:20.576Z,1.40
2023-01-27T01:03:48.256Z,1.49
2023-01-27T01:06:17.577Z,1.49
2023-01-27T01:08:45.306Z,1.31
2023-01-27T01:11:15.697Z,1.40
2023-01-27T01:13:45.405Z,1.37
2023-01-27T01:16:14.882Z,1.43
2023-01-27T01:18:42.863Z,1.42
2023-01-27T01:21:10.760Z,1.42
2023-01-27T01:23:39.847Z,1.45
2023-01-27T01:26:07.385Z,1.45
2023-01-27T01:28:34.899Z,1.46
2023-01-27T01:31:07.116Z,1.44
2023-01-27T01:33:34.627Z,1.39
2023-01-27T01:36:06.888Z,1.49
2023-01-27T01:38:34.437Z,1.55
2023-01-27T01:41:02.045Z,1.59
2023-01-27T01:43:29.525Z,1.68
2023-01-27T01:45:57.663Z,1.70
2023-01-27T01:48:32.137Z,1.63
2023-01-27T01:51:01.884Z,1.68
2023-01-27T01:53:35.109Z,1.74
2023-01-27T01:56:07.947Z,1.63
2023-01-27T01:58:36.119Z,1.69
2023-01-27T02:01:05.124Z,1.64
2023-01-27T02:03:35.512Z,1.68
2023-01-27T02:06:03.079Z,1.73
2023-01-27T02:08:32.069Z,1.73
2023-01-27T02:10:59.567Z,1.71
2023-01-27T02:13:27.054Z,1.74
2023-01-27T02:15:56.069Z,1.75
2023-01-27T02:18:23.789Z,1.75
2023-01-27T02:20:54.147Z,1.78
2023-01-27T02:23:35.130Z,1.79
2023-01-27T02:26:07.132Z,1.78
2023-01-27T02:28:34.858Z,1.78
2023-01-27T02:31:02.493Z,1.73
2023-01-27T02:33:30.050Z,1.78
2023-01-27T02:36:01.844Z,1.74
2023-01-27T02:38:33.117Z,1.78
2023-01-27T02:41:05.299Z,1.82
2023-01-27T02:43:32.757Z,1.80
2023-01-27T02:46:00.275Z,1.82
2023-01-27T02:48:27.937Z,1.82
2023-01-27T02:50:55.380Z,1.86
2023-01-27T02:53:22.848Z,1.91
2023-01-27T02:55:50.330Z,1.85
2023-01-27T02:58:19.129Z,1.93
2023-01-27T03:00:46.777Z,1.89
2023-01-27T03:03:14.286Z,1.91
2023-01-27T03:05:42.049Z,1.91
2023-01-27T03:08:09.630Z,1.93
2023-01-27T03:10:37.418Z,1.90
2023-01-27T03:13:05.172Z,1.92
2023-01-27T03:15:51.587Z,1.91
2023-01-27T03:18:19.163Z,1.89
2023-01-27T03:20:47.902Z,1.88
2023-01-27T03:23:16.321Z,1.85
2023-01-27T03:25:44.407Z,1.87
2023-01-27T03:28:12.399Z,1.98
2023-01-27T03:30:42.128Z,1.97
2023-01-27T03:33:09.673Z,1.98
2023-01-27T03:35:39.674Z,1.97
2023-01-27T03:38:28.247Z,1.99
2023-01-27T03:41:13.443Z,2.05
2023-01-27T03:43:58.717Z,2.02
2023-01-27T03:46:27.592Z,2.06
2023-01-27T03:48:56.546Z,2.01
2023-01-27T03:51:25.477Z,2.05
2023-01-27T03:53:53.339Z,2.06
2023-01-27T03:56:22.187Z,2.03
2023-01-27T03:58:50.736Z,2.08
2023-01-27T04:01:19.999Z,2.07
2023-01-27T04:04:07.419Z,2.09
2023-01-27T04:06:56.916Z,2.09
2023-01-27T04:09:26.121Z,2.09
2023-01-27T04:11:56.013Z,2.06
2023-01-27T04:14:24.974Z,2.01
2023-01-27T04:16:53.554Z,2.03
2023-01-27T04:19:22.479Z,2.03
2023-01-27T04:21:50.251Z,2.05
2023-01-27T04:24:22.526Z,2.02
2023-01-27T04:26:55.712Z,1.99
2023-01-27T04:29:24.329Z,1.95
2023-01-27T04:31:52.391Z,1.97
2023-01-27T04:34:20.274Z,2.00
2023-01-27T04:36:49.520Z,1.98
2023-01-27T04:39:17.484Z,2.00
2023-01-27T04:41:45.457Z,2.00
2023-01-27T04:44:13.183Z,1.99
2023-01-27T04:46:41.147Z,2.01
2023-01-27T04:49:09.395Z,2.03
2023-01-27T04:51:36.856Z,2.03
2023-01-27T04:54:05.953Z,2.07
2023-01-27T04:56:35.777Z,2.11
2023-01-27T04:59:06.024Z,2.09
2023-01-27T05:01:33.780Z,2.10
2023-01-27T05:04:01.458Z,2.10
2023-01-27T05:06:29.323Z,2.10
2023-01-27T05:08:56.812Z,2.04
2023-01-27T05:11:25.669Z,2.04
2023-01-27T05:13:53.144Z,1.97
2023-01-27T05:16:21.835Z,2.09
2023-01-27T05:18:51.387Z,2.08
2023-01-27T05:21:20.871Z,2.08
2023-01-27T05:23:48.727Z,2.01
2023-01-27T05:26:18.060Z,2.04
2023-01-27T05:28:48.162Z,2.07
2023-01-27T05:31:18.517Z,2.09
2023-01-27T05:33:47.061Z,2.11
2023-01-27T05:36:16.108Z,2.15
2023-01-27T05:38:43.679Z,2.11
2023-01-27T05:41:12.689Z,2.11
2023-01-27T05:43:41.967Z,2.09
2023-01-27T05:46:12.219Z,2.09
2023-01-27T05:48:42.177Z,2.09
2023-01-27T05:51:09.947Z,2.09
2023-01-27T05:53:37.574Z,2.04
2023-01-27T05:56:06.784Z,2.10
2023-01-27T05:58:34.273Z,2.15
2023-01-27T06:01:08.452Z,2.12
2023-01-27T06:03:37.750Z,2.16
2023-01-27T06:06:05.743Z,2.21
2023-01-27T06:08:33.619Z,2.17
2023-01-27T06:11:01.263Z,2.16
2023-01-27T06:13:29.002Z,2.26
2023-01-27T06:15:56.662Z,2.17
2023-01-27T06:18:24.810Z,2.28
2023-01-27T06:20:53.619Z,2.27
2023-01-27T06:23:21.084Z,2.22
2023-01-27T06:25:50.048Z,2.26
2023-01-27T06:28:30.301Z,2.25
2023-01-27T06:31:04.909Z,2.23
2023-01-27T06:33:32.724Z,2.24
2023-01-27T06:36:03.586Z,2.25
2023-01-27T06:38:31.108Z,2.22
2023-01-27T06:40:58.595Z,2.27
2023-01-27T06:43:26.186Z,2.25
2023-01-27T06:45:54.565Z,2.22
2023-01-27T06:48:22.360Z,2.26
2023-01-27T06:50:49.906Z,2.27
2023-01-27T06:53:18.739Z,2.26
2023-01-27T06:55:46.291Z,2.27
2023-01-27T06:58:15.380Z,2.28
2023-01-27T07:00:43.485Z,2.24
2023-01-27T07:03:12.894Z,2.31
2023-01-27T07:05:41.071Z,2.39
2023-01-27T07:08:08.787Z,2.45
2023-01-27T07:10:38.933Z,2.40
2023-01-27T07:13:07.109Z,2.38
2023-01-27T07:15:34.848Z,2.45
2023-01-27T07:18:02.923Z,2.45
2023-01-27T07:20:30.687Z,2.45
2023-01-27T07:22:58.953Z,2.44
2023-01-27T07:25:26.921Z,2.47
2023-01-27T07:27:57.988Z,2.52
2023-01-27T07:30:25.551Z,2.46
2023-01-27T07:32:55.006Z,2.54
2023-01-27T07:35:23.074Z,2.59
2023-01-27T07:37:50.583Z,2.66
2023-01-27T07:40:18.840Z,2.67
2023-01-27T07:42:46.299Z,2.65
2023-01-27T07:45:15.237Z,2.65
2023-01-27T07:47:42.738Z,2.69
2023-01-27T07:50:12.397Z,2.66
2023-01-27T07:52:40.029Z,2.66
2023-01-27T07:55:08.205Z,2.68
2023-01-27T07:57:35.654Z,2.79
2023-01-27T08:00:05.705Z,2.75
2023-01-27T08:02:34.509Z,2.75
2023-01-27T08:05:01.952Z,2.80
2023-01-27T08:07:29.433Z,2.77
2023-01-27T08:09:57.265Z,2.79
2023-01-27T08:12:24.779Z,2.81
2023-01-27T08:14:52.236Z,2.85
2023-01-27T08:17:19.694Z,2.92
2023-01-27T08:19:50.534Z,2.82
2023-01-27T08:22:21.878Z,2.93
2023-01-27T08:24:49.675Z,2.91
2023-01-27T08:27:18.008Z,2.86
2023-01-27T08:29:45.538Z,3.01
2023-01-27T08:32:15.151Z,3.02
2023-01-27T08:34:43.171Z,2.94
2023-01-27T08:37:12.560Z,2.91
2023-01-27T08:39:40.227Z,2.94
2023-01-27T08:42:07.749Z,2.94
2023-01-27T08:44:35.472Z,2.93
2023-01-27T08:47:02.987Z,2.97
2023-01-27T08:49:30.549Z,3.00
2023-01-27T08:51:58.373Z,3.03
2023-01-27T08:54:27.243Z,3.06
2023-01-27T08:56:54.761Z,3.05
2023-01-27T08:59:22.312Z,3.03
2023-01-27T09:01:49.901Z,3.13
2023-01-27T09:04:17.402Z,3.09
2023-01-27T09:06:48.295Z,3.11
2023-01-27T09:09:15.798Z,3.09
2023-01-27T09:11:47.253Z,3.05
2023-01-27T09:14:14.916Z,3.03
2023-01-27T09:16:42.402Z,3.06
2023-01-27T09:19:09.874Z,3.03
2023-01-27T09:21:37.429Z,3.00
2023-01-27T09:24:05.066Z,3.05
2023-01-27T09:26:32.631Z,3.02
2023-01-27T09:29:01.434Z,3.09
2023-01-27T09:31:28.994Z,3.09
2023-01-27T09:33:56.529Z,3.11
2023-01-27T09:36:24.043Z,3.14
2023-01-27T09:38:55.163Z,3.18
2023-01-27T09:41:38.259Z,3.10
2023-01-27T09:44:19.431Z,3.11
2023-01-27T09:47:00.060Z,3.09
2023-01-27T09:49:41.460Z,3.14
2023-01-27T09:52:26.260Z,3.04
2023-01-27T09:55:02.249Z,3.14
2023-01-27T09:57:36.614Z,3.11
2023-01-27T10:00:22.683Z,3.16
2023-01-27T10:03:13.140Z,3.21
2023-01-27T10:05:58.590Z,3.20
2023-01-27T10:08:48.414Z,3.19
2023-01-27T10:11:20.568Z,3.18
2023-01-27T10:13:59.815Z,3.26
2023-01-27T10:16:44.254Z,3.27
2023-01-27T10:19:36.174Z,3.25
2023-01-27T10:22:12.423Z,3.26
2023-01-27T10:24:49.812Z,3.28
2023-01-27T10:27:18.810Z,3.26
2023-01-27T10:29:47.472Z,3.33
2023-01-27T10:32:24.795Z,3.31
2023-01-27T10:34:59.416Z,3.34
2023-01-27T10:37:31.906Z,3.35
2023-01-27T10:40:02.981Z,3.31
2023-01-27T10:42:35.442Z,3.29
2023-01-27T10:45:25.350Z,3.30
2023-01-27T10:48:04.853Z,3.32
2023-01-27T10:50:35.159Z,3.27
2023-01-27T10:53:06.241Z,3.32
2023-01-27T10:55:38.682Z,3.31
2023-01-27T10:58:11.195Z,3.31
2023-01-27T11:01:17.691Z,3.29
2023-01-27T11:03:34.334Z,3.35
2023-01-27T11:06:04.459Z,3.36
2023-01-27T11:08:34.125Z,3.42
2023-01-27T11:11:20.497Z,3.45
2023-01-27T11:13:47.971Z,3.47
2023-01-27T11:16:18.018Z,3.46
2023-01-27T11:18:47.698Z,3.52
2023-01-27T11:21:19.273Z,3.55
2023-01-27T11:23:51.860Z,3.50
2023-01-27T11:26:27.222Z,3.55
2023-01-27T11:29:01.682Z,3.54
2023-01-27T11:31:37.722Z,3.55
2023-01-27T11:34:08.674Z,3.67
2023-01-27T11:36:36.211Z,3.66
2023-01-27T11:39:06.281Z,3.72
2023-01-27T11:41:36.537Z,3.76
2023-01-27T11:44:07.817Z,3.80
2023-01-27T11:46:35.477Z,3.80
2023-01-27T11:49:03.378Z,3.79
2023-01-27T11:51:39.137Z,3.80
2023-01-27T11:54:11.773Z,3.78
2023-01-27T11:56:40.867Z,3.74
2023-01-27T11:59:11.229Z,3.80
2023-01-27T12:01:47.044Z,3.89
2023-01-27T12:04:19.471Z,3.88
2023-01-27T12:06:50.397Z,3.94
2023-01-27T12:09:35.431Z,3.92
2023-01-27T12:12:22.584Z,3.92
2023-01-27T12:14:52.192Z,3.89
2023-01-27T12:17:24.753Z,3.86
2023-01-27T12:19:53.444Z,3.86
2023-01-27T12:22:26.100Z,3.90
2023-01-27T12:24:55.455Z,3.91
2023-01-27T12:27:25.286Z,3.95
2023-01-27T12:29:55.882Z,3.98
2023-01-27T12:32:25.862Z,3.99
2023-01-27T12:34:56.298Z,4.03
2023-01-27T12:37:28.648Z,4.03
2023-01-27T12:40:00.232Z,4.01
2023-01-27T12:42:39.381Z,3.97
2023-01-27T12:45:20.491Z,4.06
2023-01-27T12:48:03.674Z,4.02
2023-01-27T12:50:32.709Z,3.99
2023-01-27T12:53:12.703Z,4.15
2023-01-27T12:55:42.268Z,4.10
2023-01-27T12:58:32.853Z,4.09
2023-01-27T13:01:02.042Z,4.13
2023-01-27T13:03:30.049Z,4.18
2023-01-27T13:05:59.357Z,4.14
2023-01-27T13:08:29.848Z,4.11
2023-01-27T13:11:00.276Z,4.04
2023-01-27T13:13:29.363Z,4.11
2023-01-27T13:15:58.629Z,4.10
2023-01-27T13:18:26.522Z,4.06
2023-01-27T13:20:57.871Z,4.03
2023-01-27T13:23:29.428Z,4.06
2023-01-27T13:25:59.791Z,4.10
2023-01-27T13:28:39.611Z,4.12
2023-01-27T13:31:17.025Z,4.21
2023-01-27T13:33:47.878Z,4.17
2023-01-27T13:36:21.955Z,4.27
2023-01-27T13:38:56.835Z,4.23
2023-01-27T13:41:33.871Z,4.29
2023-01-27T13:44:04.457Z,4.28
2023-01-27T13:46:34.719Z,4.37
2023-01-27T13:49:06.038Z,4.37
2023-01-27T13:51:36.957Z,4.33
2023-01-27T13:54:07.078Z,4.31
2023-01-27T13:56:44.128Z,4.30
2023-01-27T13:59:32.099Z,4.31
2023-01-27T14:02:13.345Z,4.32
2023-01-27T14:04:50.744Z,4.32
2023-01-27T14:07:25.518Z,4.38
2023-01-27T14:10:04.069Z,4.37
2023-01-27T14:12:41.166Z,4.32
2023-01-27T14:15:25.631Z,4.31
2023-01-27T14:17:55.769Z,4.29
2023-01-27T14:20:31.030Z,4.33
2023-01-27T14:23:09.901Z,4.40
2023-01-27T14:25:43.289Z,4.38
2023-01-27T14:28:20.372Z,4.38
2023-01-27T14:30:55.019Z,4.36
2023-01-27T14:33:37.281Z,4.39
2023-01-27T14:36:12.192Z,4.43
2023-01-27T14:38:43.606Z,4.40
2023-01-27T14:41:19.102Z,4.34
2023-01-27T14:43:50.085Z,4.37
2023-01-27T14:46:36.785Z,4.42
2023-01-27T14:49:11.406Z,4.39
2023-01-27T14:51:44.192Z,4.36
2023-01-27T14:54:38.100Z,4.37
2023-01-27T14:57:24.034Z,4.37
2023-01-27T14:59:59.623Z,4.40
2023-01-27T15:02:42.936Z,4.46
2023-01-27T15:05:17.943Z,4.46
2023-01-27T15:07:52.244Z,4.38
2023-01-27T15:10:24.061Z,4.34
2023-01-27T15:13:06.178Z,4.42
2023-01-27T15:15:58.470Z,4.36
2023-01-27T15:18:38.596Z,4.38
2023-01-27T15:21:36.700Z,4.38
2023-01-27T15:24:19.363Z,4.40
2023-01-27T15:26:47.852Z,4.40
2023-01-27T15:29:19.376Z,4.50
2023-01-27T15:32:11.852Z,4.54
2023-01-27T15:34:39.676Z,4.60
2023-01-27T15:37:14.457Z,4.56
2023-01-27T15:40:04.321Z,4.50
2023-01-27T15:42:50.461Z,4.55
2023-01-27T15:45:30.870Z,4.53
2023-01-27T15:48:00.659Z,4.49
2023-01-27T15:50:30.598Z,4.48
2023-01-27T15:53:02.240Z,4.43
2023-01-27T15:55:31.606Z,4.47
2023-01-27T15:58:06.756Z,4.45
2023-01-27T16:00:38.045Z,4.43
2023-01-27T16:03:07.379Z,4.46
2023-01-27T16:05:39.350Z,4.62
2023-01-27T16:08:12.820Z,4.62
2023-01-27T16:10:40.977Z,4.61
2023-01-27T16:13:26.684Z,4.56
2023-01-27T16:16:34.257Z,4.52
2023-01-27T16:19:07.734Z,4.53
2023-01-27T16:21:43.149Z,4.51
2023-01-27T16:24:17.016Z,4.49
2023-01-27T16:26:49.170Z,4.52
2023-01-27T16:29:27.452Z,4.45
2023-01-27T16:32:00.205Z,4.42
2023-01-27T16:34:33.560Z,4.44
2023-01-27T16:37:03.983Z,4.45
2023-01-27T16:39:37.293Z,4.41
2023-01-27T16:42:05.497Z,4.44
2023-01-27T16:44:39.744Z,4.47
2023-01-27T16:47:18.714Z,4.38
2023-01-27T16:49:48.627Z,4.40
2023-01-27T16:52:19.944Z,4.37
2023-01-27T16:54:52.116Z,4.42
2023-01-27T16:57:32.128Z,4.43
2023-01-27T17:00:01.777Z,4.45
2023-01-27T17:02:32.147Z,4.41
2023-01-27T17:05:01.771Z,4.34
2023-01-27T17:07:31.967Z,4.40
2023-01-27T17:10:00.911Z,4.37
2023-01-27T17:12:30.710Z,4.44
2023-01-27T17:14:59.304Z,4.42
2023-01-27T17:17:30.720Z,4.39
2023-01-27T17:20:02.396Z,4.38
2023-01-27T17:22:36.601Z,4.39
2023-01-27T17:25:07.819Z,4.36
2023-01-27T17:27:36.743Z,4.40
2023-01-27T17:30:08.335Z,4.37
2023-01-27T17:32:38.786Z,4.32
2023-01-27T17:35:08.576Z,4.32
2023-01-27T17:37:43.043Z,4.34
2023-01-27T17:40:16.096Z,4.32
2023-01-27T17:42:44.580Z,4.34
2023-01-27T17:45:23.835Z,4.35
2023-01-27T17:47:52.997Z,4.32
2023-01-27T17:50:22.835Z,4.25
2023-01-27T17:52:53.033Z,4.24
2023-01-27T17:55:23.892Z,4.32
2023-01-27T17:57:55.038Z,4.32
2023-01-27T18:00:26.573Z,4.23
2023-01-27T18:02:58.500Z,4.24
2023-01-27T18:05:28.921Z,4.27
2023-01-27T18:07:56.756Z,4.25
2023-01-27T18:10:26.221Z,4.22
2023-01-27T18:12:54.927Z,4.20
2023-01-27T18:15:50.131Z,4.17
2023-01-27T18:18:24.400Z,4.14
2023-01-27T18:21:15.487Z,4.18
2023-01-27T18:23:45.213Z,4.18
2023-01-27T18:26:18.526Z,4.16
2023-01-27T18:28:47.284Z,4.13
2023-01-27T18:31:18.364Z,4.08
2023-01-27T18:33:47.549Z,4.05
2023-01-27T18:36:23.234Z,4.08
2023-01-27T18:38:51.583Z,4.11
2023-01-27T18:41:28.930Z,4.07
2023-01-27T18:43:57.350Z,4.00
2023-01-27T18:46:26.426Z,4.01
2023-01-27T18:48:56.501Z,4.00
2023-01-27T18:51:24.025Z,3.95
2023-01-27T18:53:51.592Z,3.99
2023-01-27T18:56:31.984Z,3.99
2023-01-27T18:58:59.501Z,3.96
2023-01-27T19:01:27.021Z,3.95
2023-01-27T19:03:58.141Z,4.00
2023-01-27T19:06:26.514Z,4.06
2023-01-27T19:08:54.617Z,4.02
2023-01-27T19:11:22.471Z,4.01
2023-01-27T19:13:50.029Z,3.99
2023-01-27T19:16:18.778Z,3.95
2023-01-27T19:18:46.430Z,3.99
2023-01-27T19:21:16.928Z,3.99
2023-01-27T19:23:45.938Z,3.94
2023-01-27T19:26:17.588Z,4.00
2023-01-27T19:28:46.387Z,3.97
2023-01-27T19:31:14.275Z,3.96
2023-01-27T19:33:44.033Z,3.98
2023-01-27T19:36:25.932Z,3.99
2023-01-27T19:38:56.935Z,3.93
2023-01-27T19:41:24.498Z,3.93
2023-01-27T19:43:52.110Z,3.92
2023-01-27T19:46:21.358Z,3.99
2023-01-27T19:48:50.148Z,3.99
2023-01-27T19:51:18.855Z,3.98
2023-01-27T19:53:47.917Z,3.95
2023-01-27T19:56:17.158Z,4.05
2023-01-27T19:58:47.087Z,3.95
2023-01-27T20:01:14.654Z,3.94
2023-01-27T20:03:42.321Z,3.90
2023-01-27T20:06:16.713Z,3.92
2023-01-27T20:08:44.501Z,3.86
2023-01-27T20:11:32.595Z,3.84
2023-01-27T20:14:01.123Z,3.84
2023-01-27T20:16:29.252Z,3.78
2023-01-27T20:18:58.009Z,3.86
2023-01-27T20:21:26.124Z,3.81
2023-01-27T20:23:54.055Z,3.79
2023-01-27T20:26:23.316Z,3.81
2023-01-27T20:28:51.216Z,3.81
2023-01-27T20:31:22.481Z,3.81
2023-01-27T20:33:50.259Z,3.79
2023-01-27T20:36:20.173Z,3.76
2023-01-27T20:38:48.006Z,3.72
2023-01-27T20:41:17.211Z,3.73
2023-01-27T20:43:46.201Z,3.76
2023-01-27T20:46:15.731Z,3.70
2023-01-27T20:48:43.494Z,3.70
2023-01-27T20:51:12.248Z,3.65
2023-01-27T20:53:45.218Z,3.65
2023-01-27T20:56:14.543Z,3.64
2023-01-27T20:58:42.587Z,3.71
2023-01-27T21:01:13.559Z,3.72
2023-01-27T21:03:41.712Z,3.68
2023-01-27T21:06:10.720Z,3.73
2023-01-27T21:08:38.749Z,3.78
2023-01-27T21:11:10.544Z,3.77
2023-01-27T21:13:38.204Z,3.69
2023-01-27T21:16:06.174Z,3.65
2023-01-27T21:18:36.427Z,3.67
2023-01-27T21:21:04.608Z,3.68
2023-01-27T21:23:33.436Z,3.64
2023-01-27T21:26:04.336Z,3.65
2023-01-27T21:28:33.517Z,3.64
2023-01-27T21:31:05.923Z,3.62
2023-01-27T21:33:36.866Z,3.56
2023-01-27T21:36:05.040Z,3.53
2023-01-27T21:38:33.251Z,3.59
2023-01-27T21:41:05.128Z,3.63
2023-01-27T21:43:51.820Z,3.59
2023-01-27T21:46:19.737Z,3.63
2023-01-27T21:48:48.935Z,3.57
2023-01-27T21:51:16.729Z,3.59
2023-01-27T21:53:44.349Z,3.53
2023-01-27T21:56:12.278Z,3.52
2023-01-27T21:58:40.190Z,3.57
2023-01-27T22:01:08.236Z,3.58
2023-01-27T22:03:36.185Z,3.56
2023-01-27T22:06:09.581Z,3.56
2023-01-27T22:08:37.375Z,3.53
2023-01-27T22:11:05.213Z,3.52
2023-01-27T22:13:32.971Z,3.52
2023-01-27T22:16:02.949Z,3.57
2023-01-27T22:18:30.751Z,3.52
2023-01-27T22:21:02.123Z,3.51
2023-01-27T22:23:31.081Z,3.45
2023-01-27T22:25:58.687Z,3.43
2023-01-27T22:28:26.873Z,3.44
2023-01-27T22:30:54.684Z,3.42
2023-01-27T22:33:22.309Z,3.42
2023-01-27T22:35:50.305Z,3.38
2023-01-27T22:38:17.861Z,3.35
2023-01-27T22:40:46.881Z,3.33
2023-01-27T22:43:14.477Z,3.30
2023-01-27T22:45:42.138Z,3.24
2023-01-27T22:48:11.650Z,3.26
2023-01-27T22:50:41.941Z,3.29
2023-01-27T22:53:10.834Z,3.29
2023-01-27T22:55:38.414Z,3.20
2023-01-27T22:58:07.566Z,3.25
2023-01-27T23:00:35.845Z,3.22
2023-01-27T23:03:03.733Z,3.25
2023-01-27T23:05:31.315Z,3.16
2023-01-27T23:07:59.834Z,3.23
2023-01-27T23:10:27.928Z,3.20
2023-01-27T23:13:04.203Z,3.22
2023-01-27T23:15:35.439Z,3.21
2023-01-27T23:18:03.084Z,3.17
2023-01-27T23:20:30.690Z,3.10
2023-01-27T23:22:58.272Z,3.11
2023-01-27T23:25:25.827Z,3.15
2023-01-27T23:27:53.341Z,3.11
2023-01-27T23:30:20.915Z,3.20
2023-01-27T23:32:50.034Z,3.14
2023-01-27T23:35:17.868Z,3.14
2023-01-27T23:37:45.527Z,3.11
2023-01-27T23:40:14.494Z,3.16
2023-01-27T23:42:42.042Z,3.14
2023-01-27T23:45:10.149Z,3.18
2023-01-27T23:47:37.773Z,3.20
2023-01-27T23:50:07.222Z,3.21
2023-01-27T23:52:35.372Z,3.10
2023-01-27T23:55:02.947Z,3.10
2023-01-27T23:57:30.558Z,3.05
2023-01-27T23:59:58.155Z,3.10
